createdAt,value
2023-05-23T00:01:25.830Z,17.20
2023-05-23T00:03:57.358Z,17.20
2023-05-23T00:06:27.402Z,17.20
2023-05-23T00:08:58.285Z,17.30
2023-05-23T00:11:29.445Z,17.40
2023-05-23T00:14:00.680Z,17.50
2023-05-23T00:16:30.972Z,17.60
2023-05-23T00:19:02.414Z,17.60
2023-05-23T00:21:33.107Z,17.70
2023-05-23T00:24:05.840Z,17.70
2023-05-23T00:26:35.352Z,17.70
2023-05-23T00:29:06.012Z,17.40
2023-05-23T00:31:35.701Z,17.50
2023-05-23T00:34:05.834Z,17.60
2023-05-23T00:36:37.505Z,17.60
2023-05-23T00:39:07.065Z,17.60
2023-05-23T00:41:38.495Z,17.60
2023-05-23T00:44:09.666Z,17.60
2023-05-23T00:46:40.979Z,17.60
2023-05-23T00:49:11.436Z,17.60
2023-05-23T00:51:43.340Z,17.60
2023-05-23T00:54:13.676Z,17.60
2023-05-23T00:56:44.230Z,17.60
2023-05-23T00:59:15.334Z,17.50
2023-05-23T01:01:47.566Z,17.50
2023-05-23T01:04:20.087Z,17.40
2023-05-23T01:06:51.164Z,17.50
2023-05-23T01:09:22.524Z,17.40
2023-05-23T01:12:16.253Z,17.40
2023-05-23T01:15:03.539Z,17.40
2023-05-23T01:17:42.669Z,17.40
2023-05-23T01:20:23.637Z,17.40
2023-05-23T01:23:02.378Z,17.50
2023-05-23T01:26:12.128Z,17.30
2023-05-23T01:28:50.536Z,17.40
2023-05-23T01:31:20.866Z,17.40
2023-05-23T01:33:54.232Z,17.30
2023-05-23T01:36:23.975Z,17.40
2023-05-23T01:38:54.743Z,17.40
2023-05-23T01:41:24.742Z,17.30
2023-05-23T01:43:54.456Z,17.30
2023-05-23T01:46:25.332Z,17.30
2023-05-23T01:48:57.688Z,17.30
2023-05-23T01:51:27.443Z,17.20
2023-05-23T01:53:59.056Z,17.20
2023-05-23T01:56:30.489Z,17.20
2023-05-23T01:59:00.249Z,17.20
2023-05-23T02:01:31.103Z,17.10
2023-05-23T02:04:01.339Z,17.10
2023-05-23T02:06:32.422Z,17.00
2023-05-23T02:09:02.347Z,17.10
2023-05-23T02:11:34.344Z,17.00
2023-05-23T02:14:04.227Z,17.00
2023-05-23T02:16:35.503Z,16.90
2023-05-23T02:19:05.786Z,16.70
2023-05-23T02:21:35.879Z,16.70
2023-05-23T02:25:46.192Z,16.80
2023-05-23T02:28:15.825Z,16.70
2023-05-23T02:30:44.587Z,16.80
2023-05-23T02:33:14.082Z,16.80
2023-05-23T02:35:43.557Z,16.80
2023-05-23T02:38:13.088Z,16.70
2023-05-23T02:40:44.143Z,16.70
2023-05-23T02:43:14.400Z,16.60
2023-05-23T02:45:44.279Z,16.50
2023-05-23T02:48:13.793Z,16.40
2023-05-23T02:50:43.499Z,16.40
2023-05-23T02:53:13.277Z,16.30
2023-05-23T02:55:43.578Z,16.40
2023-05-23T02:58:13.811Z,16.50
2023-05-23T03:00:44.315Z,16.50
2023-05-23T03:03:13.955Z,16.30
2023-05-23T03:05:44.222Z,16.30
2023-05-23T03:08:13.884Z,16.20
2023-05-23T03:10:43.580Z,16.20
2023-05-23T03:13:13.449Z,16.30
2023-05-23T03:15:43.258Z,16.20
2023-05-23T03:18:12.989Z,16.20
2023-05-23T03:20:43.375Z,16.00
2023-05-23T03:23:12.995Z,15.90
2023-05-23T03:25:43.135Z,16.00
2023-05-23T03:28:15.698Z,15.80
2023-05-23T03:30:45.506Z,15.90
2023-05-23T03:33:15.279Z,15.80
2023-05-23T03:35:44.895Z,15.90
2023-05-23T03:38:15.061Z,15.90
2023-05-23T03:40:44.748Z,15.80
2023-05-23T03:43:15.279Z,15.90
2023-05-23T03:45:45.485Z,15.90
2023-05-23T03:48:17.602Z,16.00
2023-05-23T03:50:48.316Z,16.00
2023-05-23T03:53:18.108Z,16.00
2023-05-23T03:55:47.779Z,16.00
2023-05-23T03:58:17.409Z,16.00
2023-05-23T04:00:48.802Z,16.00
2023-05-23T04:03:18.969Z,15.90
2023-05-23T04:05:49.649Z,15.90
2023-05-23T04:08:21.327Z,15.80
2023-05-23T04:10:52.813Z,15.80
2023-05-23T04:13:25.062Z,15.70
2023-05-23T04:15:59.963Z,15.80
2023-05-23T04:18:30.936Z,15.70
2023-05-23T04:21:01.709Z,15.50
2023-05-23T04:23:32.112Z,15.50
2023-05-23T04:26:02.376Z,15.40
2023-05-23T04:28:35.198Z,15.50
2023-05-23T04:31:05.347Z,15.60
2023-05-23T04:33:37.561Z,15.50
2023-05-23T04:36:09.268Z,15.40
2023-05-23T04:38:41.662Z,15.30
2023-05-23T04:41:11.642Z,15.20
2023-05-23T04:43:53.237Z,15.40
2023-05-23T04:46:36.740Z,15.50
2023-05-23T04:49:11.184Z,15.50
2023-05-23T04:51:41.443Z,15.50
2023-05-23T04:54:12.783Z,15.40
2023-05-23T04:56:42.468Z,15.50
2023-05-23T04:59:13.646Z,15.30
2023-05-23T05:01:43.368Z,15.40
2023-05-23T05:04:15.672Z,15.30
2023-05-23T05:06:48.234Z,15.40
2023-05-23T05:09:19.495Z,15.30
2023-05-23T05:11:49.032Z,15.40
2023-05-23T05:14:19.054Z,15.30
2023-05-23T05:16:50.314Z,15.30
2023-05-23T05:19:22.610Z,15.50
2023-05-23T05:21:53.060Z,15.60
2023-05-23T05:24:22.678Z,15.60
2023-05-23T05:26:52.449Z,15.40
2023-05-23T05:29:22.277Z,15.60
2023-05-23T05:31:52.323Z,15.40
2023-05-23T05:34:23.473Z,15.60
2023-05-23T05:36:55.118Z,15.60
2023-05-23T05:39:26.964Z,15.70
2023-05-23T05:41:57.050Z,15.90
2023-05-23T05:44:27.445Z,16.00
2023-05-23T05:46:57.369Z,15.90
2023-05-23T05:49:28.052Z,15.90
2023-05-23T05:51:59.398Z,16.00
2023-05-23T05:54:29.983Z,16.10
2023-05-23T05:56:59.650Z,16.20
2023-05-23T05:59:31.118Z,16.00
2023-05-23T06:02:02.725Z,16.20
2023-05-23T06:04:32.990Z,16.10
2023-05-23T06:07:02.637Z,16.00
2023-05-23T06:09:32.165Z,16.00
2023-05-23T06:12:03.603Z,15.90
2023-05-23T06:14:33.343Z,16.00
2023-05-23T06:17:04.761Z,16.20
2023-05-23T06:19:35.415Z,16.20
2023-05-23T06:22:05.155Z,16.30
2023-05-23T06:24:35.428Z,16.30
2023-05-23T06:27:05.199Z,16.20
2023-05-23T06:29:36.038Z,16.00
2023-05-23T06:32:06.413Z,16.20
2023-05-23T06:34:36.026Z,16.30
2023-05-23T06:37:05.709Z,16.40
2023-05-23T06:39:35.513Z,16.20
2023-05-23T06:42:05.285Z,16.40
2023-05-23T06:44:36.552Z,16.40
2023-05-23T06:47:06.860Z,16.20
2023-05-23T06:49:36.489Z,16.40
2023-05-23T06:52:07.664Z,16.30
2023-05-23T06:54:38.077Z,16.40
2023-05-23T06:57:09.666Z,16.50
2023-05-23T06:59:39.920Z,16.50
2023-05-23T07:02:09.516Z,16.40
2023-05-23T07:04:39.710Z,16.60
2023-05-23T07:07:11.827Z,16.40
2023-05-23T07:09:41.421Z,16.50
2023-05-23T07:12:13.237Z,16.60
2023-05-23T07:14:44.336Z,16.70
2023-05-23T07:17:14.169Z,16.70
2023-05-23T07:19:44.086Z,16.70
2023-05-23T07:22:14.374Z,16.80
2023-05-23T07:24:44.564Z,16.70
2023-05-23T07:27:15.568Z,16.90
2023-05-23T07:29:46.101Z,16.80
2023-05-23T07:32:16.520Z,16.80
2023-05-23T07:34:47.570Z,17.00
2023-05-23T07:37:17.319Z,17.10
2023-05-23T07:39:47.128Z,17.10
2023-05-23T07:42:16.657Z,17.20
2023-05-23T07:44:46.715Z,17.20
2023-05-23T07:47:16.712Z,17.30
2023-05-23T07:49:47.628Z,17.30
2023-05-23T07:52:17.703Z,17.40
2023-05-23T07:54:47.401Z,17.40
2023-05-23T07:57:17.218Z,17.50
2023-05-23T07:59:46.922Z,17.60
2023-05-23T08:02:16.671Z,17.60
2023-05-23T08:04:48.357Z,17.60
2023-05-23T08:07:19.569Z,17.80
2023-05-23T08:09:51.105Z,18.00
2023-05-23T08:12:22.240Z,18.10
2023-05-23T08:14:53.548Z,18.10
2023-05-23T08:17:24.929Z,18.10
2023-05-23T08:19:54.838Z,18.10
2023-05-23T08:22:25.441Z,18.20
2023-05-23T08:24:55.027Z,18.30
2023-05-23T08:27:25.936Z,18.20
2023-05-23T08:29:57.173Z,18.40
2023-05-23T08:32:27.729Z,18.50
2023-05-23T08:34:57.363Z,18.30
2023-05-23T08:37:27.129Z,18.30
2023-05-23T08:39:57.440Z,18.30
2023-05-23T08:42:40.886Z,18.30
2023-05-23T08:45:11.612Z,18.40
2023-05-23T08:47:44.766Z,18.50
2023-05-23T08:50:21.166Z,18.60
2023-05-23T08:53:01.479Z,18.50
2023-05-23T08:55:32.337Z,18.80
2023-05-23T08:58:04.144Z,18.90
2023-05-23T09:00:35.926Z,18.70
2023-05-23T09:03:05.963Z,18.60
2023-05-23T09:05:40.038Z,18.70
2023-05-23T09:08:11.412Z,18.70
2023-05-23T09:10:41.683Z,18.60
2023-05-23T09:13:12.922Z,18.70
2023-05-23T09:16:02.385Z,18.90
2023-05-23T09:18:43.211Z,19.10
2023-05-23T09:21:15.799Z,19.40
2023-05-23T09:23:49.835Z,19.80
2023-05-23T09:26:19.555Z,20.10
2023-05-23T09:28:49.468Z,21.30
2023-05-23T09:31:19.196Z,21.40
2023-05-23T09:33:51.405Z,21.50
2023-05-23T09:36:21.762Z,21.80
2023-05-23T09:38:53.622Z,22.80
2023-05-23T09:41:25.219Z,22.60
2023-05-23T09:43:57.155Z,22.50
2023-05-23T09:46:31.309Z,23.20
2023-05-23T09:49:02.487Z,22.30
2023-05-23T09:51:32.741Z,22.20
2023-05-23T09:54:03.951Z,23.10
2023-05-23T09:56:36.868Z,23.90
2023-05-23T09:59:08.758Z,23.30
2023-05-23T10:01:38.818Z,24.20
2023-05-23T10:04:10.874Z,24.50
2023-05-23T10:06:43.198Z,24.90
2023-05-23T10:09:18.491Z,24.90
2023-05-23T10:12:19.779Z,24.70
2023-05-23T10:14:53.751Z,25.00
2023-05-23T10:17:29.650Z,25.00
2023-05-23T10:20:08.623Z,23.30
2023-05-23T10:22:39.065Z,24.90
2023-05-23T10:25:11.612Z,24.80
2023-05-23T10:27:41.246Z,24.80
2023-05-23T10:30:11.435Z,24.50
2023-05-23T10:32:43.358Z,23.80
2023-05-23T10:35:37.728Z,24.70
2023-05-23T10:38:12.054Z,24.90
2023-05-23T10:40:54.710Z,24.10
2023-05-23T10:43:29.149Z,24.30
2023-05-23T10:45:58.762Z,25.50
2023-05-23T10:48:37.381Z,26.30
2023-05-23T10:51:14.472Z,26.40
2023-05-23T10:53:46.172Z,25.80
2023-05-23T10:56:24.654Z,25.60
2023-05-23T10:58:58.716Z,24.80
2023-05-23T11:01:29.561Z,24.60
2023-05-23T11:04:01.642Z,26.10
2023-05-23T11:06:41.280Z,26.70
2023-05-23T11:09:22.738Z,27.30
2023-05-23T11:12:07.578Z,25.40
2023-05-23T11:14:48.962Z,25.10
2023-05-23T11:17:21.199Z,25.90
2023-05-23T11:19:59.972Z,25.90
2023-05-23T11:22:31.022Z,26.40
2023-05-23T11:25:02.074Z,27.70
2023-05-23T11:27:43.636Z,27.40
2023-05-23T11:30:15.767Z,27.90
2023-05-23T11:32:55.437Z,28.20
2023-05-23T11:35:25.386Z,27.90
2023-05-23T11:37:56.547Z,28.20
2023-05-23T11:40:38.046Z,27.10
2023-05-23T11:45:33.897Z,27.10
2023-05-23T11:48:14.917Z,27.90
2023-05-23T11:50:52.607Z,27.90
2023-05-23T11:53:26.047Z,27.20
2023-05-23T11:56:01.791Z,28.70
2023-05-23T11:58:40.862Z,28.50
2023-05-23T12:01:14.479Z,28.20
2023-05-23T12:03:50.004Z,28.30
2023-05-23T12:06:24.869Z,27.40
2023-05-23T12:08:54.675Z,26.50
2023-05-23T12:11:26.049Z,26.20
2023-05-23T12:13:56.004Z,26.10
2023-05-23T12:16:25.565Z,27.40
2023-05-23T12:18:56.782Z,28.10
2023-05-23T12:21:42.864Z,28.20
2023-05-23T12:24:23.177Z,28.40
2023-05-23T12:26:55.347Z,27.70
2023-05-23T12:29:37.294Z,28.50
2023-05-23T12:32:08.362Z,28.60
2023-05-23T12:34:43.476Z,26.10
2023-05-23T12:39:46.638Z,26.20
2023-05-23T12:42:16.160Z,26.20
2023-05-23T12:44:47.454Z,26.10
2023-05-23T12:47:19.727Z,26.10
2023-05-23T12:49:50.967Z,26.30
2023-05-23T12:52:20.557Z,27.60
2023-05-23T12:54:51.809Z,27.90
2023-05-23T12:57:23.112Z,28.30
2023-05-23T12:59:52.990Z,28.20
2023-05-23T13:02:23.808Z,27.30
2023-05-23T13:04:53.381Z,27.20
2023-05-23T13:07:24.004Z,27.70
2023-05-23T13:09:54.032Z,28.30
2023-05-23T13:12:23.890Z,28.50
2023-05-23T13:14:53.438Z,29.10
2023-05-23T13:17:23.368Z,29.00
2023-05-23T13:19:54.285Z,27.50
2023-05-23T13:22:23.954Z,28.40
2023-05-23T13:24:53.558Z,28.50
2023-05-23T13:27:23.079Z,27.90
2023-05-23T13:29:54.612Z,28.90
2023-05-23T13:32:23.793Z,27.90
2023-05-23T13:34:53.440Z,26.90
2023-05-23T13:37:23.469Z,26.00
2023-05-23T13:39:52.977Z,25.70
2023-05-23T13:42:22.578Z,25.80
2023-05-23T13:44:52.353Z,27.00
2023-05-23T13:47:21.925Z,26.90
2023-05-23T13:49:51.523Z,27.90
2023-05-23T13:52:21.442Z,28.20
2023-05-23T13:54:51.028Z,27.60
2023-05-23T13:57:21.025Z,26.50
2023-05-23T13:59:51.136Z,26.50
2023-05-23T14:02:22.121Z,27.10
2023-05-23T14:04:52.030Z,27.00
2023-05-23T14:07:22.361Z,27.10
2023-05-23T14:09:52.019Z,27.00
2023-05-23T14:12:21.544Z,27.20
2023-05-23T14:14:51.656Z,27.70
2023-05-23T14:17:21.350Z,28.30
2023-05-23T14:19:51.805Z,28.00
2023-05-23T14:22:21.435Z,27.80
2023-05-23T14:24:51.026Z,27.90
2023-05-23T14:27:20.541Z,28.40
2023-05-23T14:29:50.272Z,27.70
2023-05-23T14:32:20.075Z,27.30
2023-05-23T14:34:49.738Z,26.60
2023-05-23T14:37:19.281Z,27.20
2023-05-23T14:39:48.865Z,28.20
2023-05-23T14:42:18.397Z,28.00
2023-05-23T14:44:48.036Z,26.80
2023-05-23T14:47:17.633Z,27.30
2023-05-23T14:49:47.159Z,27.00
2023-05-23T14:52:18.073Z,27.60
2023-05-23T14:54:47.655Z,27.30
2023-05-23T14:57:17.258Z,27.10
2023-05-23T14:59:46.810Z,26.30
2023-05-23T15:02:17.614Z,26.00
2023-05-23T15:04:47.412Z,25.90
2023-05-23T15:07:18.881Z,26.00
2023-05-23T15:09:48.441Z,25.70
2023-05-23T15:12:17.985Z,25.40
2023-05-23T15:14:47.559Z,25.50
2023-05-23T15:17:24.309Z,25.40
2023-05-23T15:19:56.909Z,25.70
2023-05-23T15:25:00.687Z,25.60
2023-05-23T15:27:30.310Z,26.20
2023-05-23T15:30:01.005Z,26.40
2023-05-23T15:32:31.926Z,26.60
2023-05-23T15:35:01.516Z,26.60
2023-05-23T15:37:31.067Z,26.70
2023-05-23T15:40:00.656Z,26.60
2023-05-23T15:42:30.425Z,26.60
2023-05-23T15:45:01.255Z,26.50
2023-05-23T15:47:31.071Z,26.50
2023-05-23T15:50:00.712Z,26.80
2023-05-23T15:52:31.142Z,26.60
2023-05-23T15:55:02.001Z,26.40
2023-05-23T15:57:31.560Z,26.20
2023-05-23T16:00:01.708Z,26.10
2023-05-23T16:02:32.982Z,26.30
2023-05-23T16:05:02.641Z,26.00
2023-05-23T16:07:32.215Z,25.50
2023-05-23T16:10:01.949Z,25.50
2023-05-23T16:12:32.100Z,25.40
2023-05-23T16:15:01.638Z,25.40
2023-05-23T16:17:31.251Z,25.20
2023-05-23T16:20:03.660Z,25.20
2023-05-23T16:22:33.187Z,25.00
2023-05-23T16:25:02.704Z,25.10
2023-05-23T16:27:32.324Z,24.90
2023-05-23T16:30:01.884Z,24.90
2023-05-23T16:32:31.540Z,24.70
2023-05-23T16:35:01.857Z,24.70
2023-05-23T16:37:31.394Z,24.70
2023-05-23T16:40:01.055Z,24.70
2023-05-23T16:42:31.361Z,24.50
2023-05-23T16:45:01.860Z,24.30
2023-05-23T16:47:32.694Z,24.30
2023-05-23T16:50:02.338Z,24.30
2023-05-23T16:52:33.519Z,24.40
2023-05-23T16:55:04.565Z,24.50
2023-05-23T16:57:34.182Z,24.40
2023-05-23T17:00:06.196Z,24.30
2023-05-23T17:02:35.881Z,24.30
2023-05-23T17:05:06.069Z,24.30
2023-05-23T17:07:35.615Z,24.40
2023-05-23T17:10:05.364Z,24.40
2023-05-23T17:12:34.919Z,24.30
2023-05-23T17:15:06.976Z,24.30
2023-05-23T17:17:37.151Z,24.40
2023-05-23T17:20:08.590Z,24.40
2023-05-23T17:22:38.381Z,24.50
2023-05-23T17:25:08.174Z,24.50
2023-05-23T17:27:37.806Z,24.30
2023-05-23T17:30:08.210Z,24.30
2023-05-23T17:32:38.262Z,24.30
2023-05-23T17:35:08.686Z,24.30
2023-05-23T17:37:38.512Z,24.40
2023-05-23T17:40:08.991Z,24.20
2023-05-23T17:42:41.450Z,24.20
2023-05-23T17:45:11.710Z,24.00
2023-05-23T17:47:41.939Z,24.00
2023-05-23T17:50:12.509Z,24.00
2023-05-23T17:52:42.855Z,24.00
2023-05-23T17:55:12.563Z,24.00
2023-05-23T17:57:42.219Z,23.80
2023-05-23T18:00:13.632Z,23.70
2023-05-23T18:02:43.043Z,23.70
2023-05-23T18:05:13.233Z,23.70
2023-05-23T18:07:42.799Z,23.70
2023-05-23T18:10:13.459Z,23.00
2023-05-23T18:12:43.260Z,22.40
2023-05-23T18:15:13.496Z,22.00
2023-05-23T18:17:43.162Z,22.00
2023-05-23T18:20:13.482Z,21.50
2023-05-23T18:22:43.341Z,21.10
2023-05-23T18:25:14.866Z,21.00
2023-05-23T18:27:44.745Z,21.00
2023-05-23T18:30:14.411Z,21.00
2023-05-23T18:32:45.766Z,21.00
2023-05-23T18:35:15.917Z,20.90
2023-05-23T18:37:45.531Z,20.70
2023-05-23T18:40:16.027Z,20.70
2023-05-23T18:42:45.617Z,20.60
2023-05-23T18:45:15.153Z,20.20
2023-05-23T18:47:44.892Z,20.10
2023-05-23T18:50:15.347Z,20.30
2023-05-23T18:52:44.887Z,20.10
2023-05-23T18:55:16.627Z,20.00
2023-05-23T18:57:46.329Z,20.10
2023-05-23T19:00:16.286Z,19.90
2023-05-23T19:02:46.603Z,19.80
2023-05-23T19:05:16.240Z,19.70
2023-05-23T19:07:45.938Z,19.90
2023-05-23T19:10:15.798Z,19.70
2023-05-23T19:12:45.985Z,19.70
2023-05-23T19:15:15.495Z,19.70
2023-05-23T19:17:45.268Z,19.70
2023-05-23T19:20:17.141Z,19.50
2023-05-23T19:22:52.388Z,19.70
2023-05-23T19:25:19.616Z,19.70
2023-05-23T19:27:49.450Z,19.50
2023-05-23T19:30:19.220Z,19.60
2023-05-23T19:32:49.139Z,19.50
2023-05-23T19:35:18.846Z,19.60
2023-05-23T19:37:49.449Z,19.40
2023-05-23T19:40:20.901Z,19.40
2023-05-23T19:42:51.253Z,19.40
2023-05-23T19:45:21.420Z,19.40
2023-05-23T19:47:51.206Z,19.40
2023-05-23T19:50:22.328Z,19.20
2023-05-23T19:52:52.460Z,19.20
2023-05-23T19:55:22.048Z,19.20
2023-05-23T19:57:51.653Z,19.40
2023-05-23T20:00:21.630Z,19.60
2023-05-23T20:02:51.195Z,19.50
2023-05-23T20:05:22.017Z,19.60
2023-05-23T20:07:51.534Z,19.60
2023-05-23T20:10:21.302Z,19.60
2023-05-23T20:12:51.241Z,19.90
2023-05-23T20:15:31.283Z,19.60
2023-05-23T20:17:52.991Z,19.80
2023-05-23T20:20:22.587Z,19.60
2023-05-23T20:22:52.112Z,19.40
2023-05-23T20:25:26.184Z,19.60
2023-05-23T20:27:59.015Z,19.50
2023-05-23T20:30:29.720Z,19.70
2023-05-23T20:32:59.350Z,19.60
2023-05-23T20:35:28.842Z,19.50
2023-05-23T20:37:58.934Z,19.70
2023-05-23T20:40:29.729Z,19.70
2023-05-23T20:43:01.180Z,19.60
2023-05-23T20:45:32.777Z,19.60
2023-05-23T20:48:02.782Z,19.30
2023-05-23T20:50:34.028Z,19.00
2023-05-23T20:53:03.924Z,18.90
2023-05-23T20:55:35.355Z,18.80
2023-05-23T20:58:05.474Z,18.80
2023-05-23T21:00:34.985Z,18.90
2023-05-23T21:03:04.774Z,18.80
2023-05-23T21:05:34.397Z,18.80
2023-05-23T21:08:04.431Z,19.00
2023-05-23T21:10:34.356Z,19.00
2023-05-23T21:13:03.962Z,18.80
2023-05-23T21:15:34.166Z,19.00
2023-05-23T21:18:03.779Z,19.20
2023-05-23T21:20:33.410Z,19.20
2023-05-23T21:23:02.970Z,19.20
2023-05-23T21:25:32.623Z,19.10
2023-05-23T21:28:02.545Z,19.20
2023-05-23T21:30:32.264Z,19.10
2023-05-23T21:33:01.885Z,19.10
2023-05-23T21:35:31.481Z,19.10
2023-05-23T21:38:01.067Z,19.00
2023-05-23T21:40:30.579Z,19.00
2023-05-23T21:43:00.173Z,19.10
2023-05-23T21:45:29.725Z,19.10
2023-05-23T21:47:59.344Z,18.90
2023-05-23T21:50:28.929Z,18.90
2023-05-23T21:52:58.497Z,18.20
2023-05-23T21:55:28.085Z,18.10
2023-05-23T21:57:57.669Z,18.40
2023-05-23T22:00:27.471Z,18.60
2023-05-23T22:02:58.112Z,18.80
2023-05-23T22:05:28.051Z,18.80
2023-05-23T22:07:57.566Z,18.90
2023-05-23T22:10:27.087Z,18.80
2023-05-23T22:12:57.123Z,18.70
2023-05-23T22:15:26.669Z,18.70
2023-05-23T22:17:56.324Z,18.60
2023-05-23T22:20:26.160Z,18.50
2023-05-23T22:22:55.679Z,18.40
2023-05-23T22:25:25.200Z,18.30
2023-05-23T22:27:54.744Z,18.30
2023-05-23T22:30:24.328Z,18.20
2023-05-23T22:32:53.858Z,18.00
2023-05-23T22:35:23.750Z,18.10
2023-05-23T22:37:53.268Z,17.80
2023-05-23T22:40:22.794Z,17.30
2023-05-23T22:42:52.499Z,17.20
2023-05-23T22:45:22.095Z,17.50
2023-05-23T22:47:53.694Z,17.60
2023-05-23T22:50:23.214Z,17.80
2023-05-23T22:52:52.738Z,17.50
2023-05-23T22:55:22.368Z,17.60
2023-05-23T22:57:51.886Z,17.40
2023-05-23T23:00:21.652Z,17.60
2023-05-23T23:02:51.425Z,17.70
2023-05-23T23:05:23.375Z,17.60
2023-05-23T23:07:53.253Z,17.70
2023-05-23T23:10:22.768Z,17.60
2023-05-23T23:12:52.370Z,17.60
2023-05-23T23:15:24.641Z,17.50
2023-05-23T23:17:54.359Z,17.50
2023-05-23T23:20:24.091Z,17.40
2023-05-23T23:22:53.635Z,17.30
2023-05-23T23:25:23.303Z,17.50
2023-05-23T23:27:52.858Z,17.70
2023-05-23T23:30:22.674Z,17.50
2023-05-23T23:32:52.391Z,17.30
2023-05-23T23:35:21.985Z,17.20
2023-05-23T23:37:51.556Z,17.40
2023-05-23T23:40:21.282Z,17.30
2023-05-23T23:42:50.795Z,16.90
2023-05-23T23:45:20.516Z,16.90
2023-05-23T23:47:50.350Z,17.20
2023-05-23T23:50:19.997Z,16.90
2023-05-23T23:52:50.217Z,17.30
2023-05-23T23:57:46.604Z,17.40
